Speedwell, Virginia
Current Conditions -  °F | °C
As of 12:35 PM on Thursday 30 Oct 2014 (Local Time) from KMKJ Reporting Station
Scattered Clouds Scattered Clouds  
Wind Chill: 51°   Ceiling: Unl
Heat Index: 51°   Visibility: 10mi
Dew Point: 36°   Wind: 5mph
Humidity: 57%   Direction: 240°WSW
Pressure: 30.1"   Gusts: NA
Location:  36.81°N, 81.17°W
Report Text: KMKJ 301635Z AUTO 24004KT 10SM SCT028 11/02 A3010 RMK AO2 T01060024
Loading
Personal Weather Stations






























Interactive Weather Map
Tropical Storm Tracking
New forecast layout! Learn more

10-Day Weather Forecast

Advertisements
Track Severe Weather on mobile